CPA930 RPLL-VHHH
Flight info
| Callsign | CPA930 |
|---|---|
| Flight time | 1h 38m |
| Altitude | 38000 |
| Route | CAB2R CAB A461 NOMAN V533 BETTY |
| Aircraft | B77W/H-SDE1E2E3FGHIJ2J3J4J5M1RWXY/LB1D1 |
Departure
| Time | 2026-05-04 12:56 |
|---|---|
| Airport | Ninoy Aquino International Airport (RPLL) |
Arrival
| Time | 2026-05-04 14:35 |
|---|---|
| Airport | Hong Kong International Airport (VHHH) |
| Time | Latitude | Longitude | Altitude | Speed | Heading |
|---|---|---|---|---|---|
| 2026-05-04 12:33 | 14.51939 | 121.01219 | 74 ft | 0 kts | 45° |
| 2026-05-04 12:40 | 14.51938 | 121.01218 | 74 ft | 0 kts | 45° |
| 2026-05-04 12:40 | 14.51937 | 121.01218 | 74 ft | 0 kts | 45° |
| 2026-05-04 12:41 | 14.51929 | 121.01209 | 63 ft | 3 kts | 45° |
| 2026-05-04 12:42 | 14.51909 | 121.01189 | 63 ft | 3 kts | 45° |
| 2026-05-04 12:42 | 14.51896 | 121.01173 | 63 ft | 3 kts | 66° |
| 2026-05-04 12:42 | 14.51892 | 121.01153 | 64 ft | 3 kts | 96° |
| 2026-05-04 12:42 | 14.51898 | 121.01133 | 63 ft | 3 kts | 129° |
| 2026-05-04 12:43 | 14.51903 | 121.01128 | 67 ft | 0 kts | 137° |
| 2026-05-04 12:44 | 14.51899 | 121.01132 | 63 ft | 7 kts | 134° |
| 2026-05-04 12:44 | 14.51823 | 121.01212 | 63 ft | 18 kts | 134° |
| 2026-05-04 12:44 | 14.51763 | 121.01275 | 63 ft | 18 kts | 135° |
| 2026-05-04 12:44 | 14.51674 | 121.01366 | 68 ft | 18 kts | 135° |
| 2026-05-04 12:45 | 14.51585 | 121.01458 | 65 ft | 18 kts | 135° |
| 2026-05-04 12:45 | 14.51497 | 121.01549 | 64 ft | 18 kts | 135° |
| 2026-05-04 12:45 | 14.51408 | 121.01640 | 68 ft | 18 kts | 135° |
| 2026-05-04 12:45 | 14.51319 | 121.01732 | 65 ft | 18 kts | 135° |
| 2026-05-04 12:46 | 14.51231 | 121.01824 | 63 ft | 18 kts | 135° |
| 2026-05-04 12:46 | 14.51142 | 121.01915 | 63 ft | 16 kts | 135° |
| 2026-05-04 12:46 | 14.51079 | 121.01978 | 63 ft | 8 kts | 141° |
| 2026-05-04 12:46 | 14.51033 | 121.01965 | 65 ft | 6 kts | 223° |
| 2026-05-04 12:47 | 14.51025 | 121.01954 | 66 ft | 2 kts | 234° |
| 2026-05-04 12:47 | 14.51024 | 121.01953 | 66 ft | 1 kts | 234° |
| 2026-05-04 12:47 | 14.50963 | 121.01850 | 64 ft | 29 kts | 240° |
| 2026-05-04 12:47 | 14.50878 | 121.01696 | 65 ft | 20 kts | 240° |
| 2026-05-04 12:48 | 14.50817 | 121.01586 | 65 ft | 11 kts | 240° |
| 2026-05-04 12:48 | 14.50778 | 121.01515 | 63 ft | 12 kts | 240° |
| 2026-05-04 12:48 | 14.50737 | 121.01441 | 67 ft | 12 kts | 240° |
| 2026-05-04 12:48 | 14.50695 | 121.01366 | 63 ft | 12 kts | 239° |
| 2026-05-04 12:49 | 14.50621 | 121.01234 | 67 ft | 34 kts | 240° |
| 2026-05-04 12:49 | 14.50508 | 121.01032 | 63 ft | 29 kts | 240° |
| 2026-05-04 12:49 | 14.50425 | 121.00883 | 63 ft | 21 kts | 239° |
| 2026-05-04 12:49 | 14.50354 | 121.00755 | 64 ft | 21 kts | 240° |
| 2026-05-04 12:50 | 14.50283 | 121.00627 | 64 ft | 21 kts | 240° |
| 2026-05-04 12:50 | 14.50212 | 121.00499 | 64 ft | 21 kts | 241° |
| 2026-05-04 12:50 | 14.50141 | 121.00371 | 64 ft | 20 kts | 240° |
| 2026-05-04 12:50 | 14.50074 | 121.00253 | 63 ft | 15 kts | 240° |
| 2026-05-04 12:51 | 14.50038 | 121.00188 | 70 ft | 10 kts | 240° |
| 2026-05-04 12:51 | 14.50011 | 121.00139 | 63 ft | 5 kts | 240° |
| 2026-05-04 12:51 | 14.49981 | 121.00085 | 66 ft | 10 kts | 240° |
| 2026-05-04 12:51 | 14.49948 | 121.00024 | 68 ft | 10 kts | 240° |
| 2026-05-04 12:52 | 14.49923 | 120.99986 | 65 ft | 4 kts | 229° |
| 2026-05-04 12:52 | 14.49905 | 120.99974 | 69 ft | 0 kts | 204° |
| 2026-05-04 12:53 | 14.49904 | 120.99974 | 65 ft | 3 kts | 204° |
| 2026-05-04 12:53 | 14.49826 | 120.99998 | 69 ft | 14 kts | 137° |
| 2026-05-04 12:53 | 14.49830 | 121.00090 | 69 ft | 8 kts | 62° |
| 2026-05-04 12:54 | 14.49840 | 121.00106 | 63 ft | 0 kts | 58° |
| 2026-05-04 12:55 | 14.49897 | 121.00206 | 67 ft | 54 kts | 60° |
| 2026-05-04 12:55 | 14.50268 | 121.00879 | 63 ft | 158 kts | 60° |
| 2026-05-04 12:56 | 14.50941 | 121.02054 | 431 ft | 204 kts | 61° |
| 2026-05-04 12:56 | 14.51678 | 121.03337 | 1446 ft | 211 kts | 60° |
| 2026-05-04 12:56 | 14.52430 | 121.04638 | 2541 ft | 219 kts | 60° |
| 2026-05-04 12:56 | 14.53251 | 121.06059 | 3168 ft | 236 kts | 60° |
| 2026-05-04 12:57 | 14.54110 | 121.07549 | 3931 ft | 248 kts | 60° |
| 2026-05-04 12:57 | 14.55002 | 121.09095 | 4688 ft | 258 kts | 58° |
| 2026-05-04 12:57 | 14.56282 | 121.10429 | 5483 ft | 268 kts | 31° |
| 2026-05-04 12:57 | 14.58055 | 121.11047 | 6467 ft | 271 kts | 12° |
| 2026-05-04 12:58 | 14.59934 | 121.11322 | 7398 ft | 275 kts | 8° |
| 2026-05-04 12:58 | 14.61849 | 121.11538 | 8318 ft | 279 kts | 7° |
| 2026-05-04 12:58 | 14.63792 | 121.11741 | 9223 ft | 282 kts | 7° |
| 2026-05-04 12:58 | 14.65760 | 121.11941 | 10129 ft | 286 kts | 7° |
| 2026-05-04 12:59 | 14.67789 | 121.12141 | 10686 ft | 304 kts | 7° |
| 2026-05-04 12:59 | 14.70006 | 121.12360 | 10894 ft | 334 kts | 7° |
| 2026-05-04 12:59 | 14.72391 | 121.12597 | 11182 ft | 359 kts | 7° |
| 2026-05-04 12:59 | 14.74915 | 121.12849 | 11853 ft | 371 kts | 7° |
| 2026-05-04 13:00 | 14.77519 | 121.13106 | 12688 ft | 379 kts | 7° |
| 2026-05-04 13:00 | 14.80168 | 121.13367 | 13569 ft | 385 kts | 7° |
| 2026-05-04 13:00 | 14.82857 | 121.13630 | 14388 ft | 391 kts | 7° |
| 2026-05-04 13:00 | 14.85583 | 121.13898 | 15181 ft | 395 kts | 7° |
| 2026-05-04 13:01 | 14.88339 | 121.14138 | 15947 ft | 400 kts | 4° |
| 2026-05-04 13:01 | 14.91166 | 121.14093 | 16667 ft | 409 kts | 358° |
| 2026-05-04 13:01 | 14.94006 | 121.13743 | 17442 ft | 415 kts | 351° |
| 2026-05-04 13:01 | 14.96860 | 121.13175 | 18213 ft | 419 kts | 349° |
| 2026-05-04 13:02 | 14.99727 | 121.12559 | 18886 ft | 424 kts | 349° |
| 2026-05-04 13:02 | 15.02598 | 121.11933 | 19562 ft | 428 kts | 349° |
| 2026-05-04 13:02 | 15.05530 | 121.11300 | 20264 ft | 432 kts | 349° |
| 2026-05-04 13:02 | 15.08491 | 121.10669 | 20951 ft | 436 kts | 349° |
| 2026-05-04 13:03 | 15.11481 | 121.10039 | 21612 ft | 440 kts | 349° |
| 2026-05-04 13:03 | 15.14511 | 121.09407 | 22257 ft | 445 kts | 349° |
| 2026-05-04 13:03 | 15.17563 | 121.08773 | 22880 ft | 450 kts | 349° |
| 2026-05-04 13:03 | 15.20615 | 121.08139 | 23501 ft | 455 kts | 349° |
| 2026-05-04 13:04 | 15.23738 | 121.07491 | 24018 ft | 459 kts | 348° |
| 2026-05-04 13:04 | 15.26878 | 121.06839 | 24564 ft | 462 kts | 348° |
| 2026-05-04 13:04 | 15.30048 | 121.06180 | 25119 ft | 465 kts | 348° |
| 2026-05-04 13:04 | 15.33238 | 121.05516 | 25675 ft | 468 kts | 348° |
| 2026-05-04 13:05 | 15.36434 | 121.04850 | 26215 ft | 471 kts | 348° |
| 2026-05-04 13:05 | 15.39657 | 121.04179 | 26743 ft | 474 kts | 348° |
| 2026-05-04 13:05 | 15.42908 | 121.03502 | 27260 ft | 477 kts | 348° |
| 2026-05-04 13:05 | 15.46152 | 121.02749 | 27770 ft | 480 kts | 344° |
| 2026-05-04 13:06 | 15.49339 | 121.01673 | 28276 ft | 482 kts | 339° |
| 2026-05-04 13:06 | 15.52427 | 121.00277 | 28772 ft | 485 kts | 333° |
| 2026-05-04 13:06 | 15.55395 | 120.98698 | 29250 ft | 487 kts | 332° |
| 2026-05-04 13:06 | 15.58410 | 120.97065 | 29738 ft | 490 kts | 332° |
| 2026-05-04 13:07 | 15.61442 | 120.95419 | 30174 ft | 493 kts | 332° |
| 2026-05-04 13:07 | 15.64495 | 120.93768 | 30575 ft | 494 kts | 332° |
| 2026-05-04 13:07 | 15.67552 | 120.92126 | 31002 ft | 495 kts | 332° |
| 2026-05-04 13:07 | 15.70625 | 120.90483 | 31433 ft | 495 kts | 332° |
| 2026-05-04 13:08 | 15.73696 | 120.88847 | 31918 ft | 493 kts | 332° |
| 2026-05-04 13:08 | 15.76732 | 120.87232 | 32505 ft | 489 kts | 332° |
| 2026-05-04 13:08 | 15.79714 | 120.85646 | 33122 ft | 485 kts | 332° |
| 2026-05-04 13:08 | 15.82705 | 120.84055 | 33712 ft | 481 kts | 332° |
| 2026-05-04 13:09 | 15.85678 | 120.82472 | 34210 ft | 478 kts | 331° |
| 2026-05-04 13:09 | 15.88639 | 120.80894 | 34612 ft | 477 kts | 331° |
| 2026-05-04 13:09 | 15.91594 | 120.79318 | 34968 ft | 477 kts | 331° |
| 2026-05-04 13:09 | 15.94520 | 120.77757 | 35329 ft | 477 kts | 331° |
| 2026-05-04 13:10 | 15.97475 | 120.76180 | 35727 ft | 476 kts | 330° |
| 2026-05-04 13:10 | 16.00418 | 120.74609 | 36112 ft | 474 kts | 330° |
| 2026-05-04 13:10 | 16.03351 | 120.73043 | 36492 ft | 474 kts | 330° |
| 2026-05-04 13:10 | 16.06286 | 120.71475 | 36842 ft | 473 kts | 330° |
| 2026-05-04 13:11 | 16.09213 | 120.69911 | 37201 ft | 472 kts | 330° |
| 2026-05-04 13:11 | 16.12134 | 120.68350 | 37567 ft | 471 kts | 330° |
| 2026-05-04 13:11 | 16.15048 | 120.66792 | 37877 ft | 471 kts | 330° |
| 2026-05-04 13:12 | 16.20864 | 120.63679 | 37967 ft | 472 kts | 330° |
| 2026-05-04 13:12 | 16.26703 | 120.60554 | 37976 ft | 471 kts | 330° |
| 2026-05-04 13:13 | 16.32534 | 120.57430 | 37964 ft | 470 kts | 330° |
| 2026-05-04 13:13 | 16.38343 | 120.54317 | 37986 ft | 470 kts | 330° |
| 2026-05-04 13:14 | 16.44155 | 120.51200 | 37981 ft | 470 kts | 330° |
| 2026-05-04 13:14 | 16.49977 | 120.48075 | 37968 ft | 470 kts | 330° |
| 2026-05-04 13:15 | 16.55791 | 120.44951 | 37965 ft | 470 kts | 330° |
| 2026-05-04 13:15 | 16.61572 | 120.41843 | 37957 ft | 470 kts | 330° |
| 2026-05-04 13:16 | 16.67393 | 120.38712 | 37954 ft | 470 kts | 330° |
| 2026-05-04 13:16 | 16.72908 | 120.35105 | 37950 ft | 467 kts | 320° |
| 2026-05-04 13:17 | 16.77706 | 120.30576 | 37941 ft | 464 kts | 311° |
| 2026-05-04 13:17 | 16.82147 | 120.25671 | 37936 ft | 465 kts | 311° |
| 2026-05-04 13:18 | 16.86577 | 120.20742 | 37922 ft | 465 kts | 311° |
| 2026-05-04 13:18 | 16.91026 | 120.15832 | 37923 ft | 465 kts | 311° |
| 2026-05-04 13:19 | 16.95482 | 120.10935 | 37921 ft | 465 kts | 311° |
| 2026-05-04 13:19 | 16.99913 | 120.06070 | 37919 ft | 465 kts | 311° |
| 2026-05-04 13:20 | 17.04384 | 120.01156 | 37924 ft | 466 kts | 311° |
| 2026-05-04 13:20 | 17.08851 | 119.96240 | 37927 ft | 466 kts | 311° |
| 2026-05-04 13:21 | 17.13288 | 119.91354 | 37924 ft | 466 kts | 311° |
| 2026-05-04 13:21 | 17.17752 | 119.86436 | 37927 ft | 466 kts | 311° |
| 2026-05-04 13:22 | 17.22217 | 119.81512 | 37925 ft | 466 kts | 311° |
| 2026-05-04 13:22 | 17.26675 | 119.76591 | 37929 ft | 466 kts | 310° |
| 2026-05-04 13:23 | 17.31130 | 119.71671 | 37929 ft | 465 kts | 310° |
| 2026-05-04 13:23 | 17.35584 | 119.66748 | 37931 ft | 465 kts | 310° |
| 2026-05-04 13:24 | 17.40036 | 119.61823 | 37931 ft | 465 kts | 310° |
| 2026-05-04 13:24 | 17.44464 | 119.56922 | 37930 ft | 465 kts | 310° |
| 2026-05-04 13:25 | 17.51138 | 119.49526 | 37939 ft | 465 kts | 310° |
| 2026-05-04 13:25 | 17.55577 | 119.44603 | 37935 ft | 465 kts | 310° |
| 2026-05-04 13:26 | 17.60021 | 119.39671 | 37937 ft | 465 kts | 310° |
| 2026-05-04 13:26 | 17.64431 | 119.34772 | 37945 ft | 465 kts | 310° |
| 2026-05-04 13:27 | 17.68864 | 119.29844 | 37942 ft | 464 kts | 310° |
| 2026-05-04 13:27 | 17.73296 | 119.24912 | 37944 ft | 464 kts | 310° |
| 2026-05-04 13:28 | 17.77731 | 119.19975 | 37951 ft | 464 kts | 310° |
| 2026-05-04 13:28 | 17.82137 | 119.15065 | 37954 ft | 464 kts | 310° |
| 2026-05-04 13:29 | 17.86568 | 119.10124 | 37956 ft | 464 kts | 310° |
| 2026-05-04 13:29 | 17.90987 | 119.05192 | 37941 ft | 464 kts | 310° |
| 2026-05-04 13:30 | 17.95383 | 119.00281 | 37940 ft | 463 kts | 310° |
| 2026-05-04 13:30 | 17.99799 | 118.95345 | 37944 ft | 463 kts | 310° |
| 2026-05-04 13:31 | 18.04214 | 118.90410 | 37961 ft | 462 kts | 310° |
| 2026-05-04 13:31 | 18.08619 | 118.85483 | 37965 ft | 462 kts | 310° |
| 2026-05-04 13:32 | 18.13017 | 118.80557 | 37954 ft | 462 kts | 310° |
| 2026-05-04 13:32 | 18.17385 | 118.75660 | 37954 ft | 462 kts | 310° |
| 2026-05-04 13:33 | 18.21776 | 118.70734 | 37977 ft | 461 kts | 309° |
| 2026-05-04 13:33 | 18.25457 | 118.66601 | 37959 ft | 461 kts | 309° |
| 2026-05-04 13:34 | 18.29845 | 118.61671 | 37969 ft | 461 kts | 309° |
| 2026-05-04 13:34 | 18.34201 | 118.56773 | 37961 ft | 461 kts | 309° |
| 2026-05-04 13:35 | 18.40787 | 118.49361 | 37969 ft | 461 kts | 309° |
| 2026-05-04 13:36 | 18.45165 | 118.44428 | 37964 ft | 461 kts | 309° |
| 2026-05-04 13:36 | 18.49544 | 118.39491 | 37967 ft | 461 kts | 309° |
| 2026-05-04 13:37 | 18.53919 | 118.34555 | 37972 ft | 461 kts | 309° |
| 2026-05-04 13:37 | 18.58274 | 118.29635 | 37973 ft | 461 kts | 309° |
| 2026-05-04 13:38 | 18.62650 | 118.24689 | 37973 ft | 461 kts | 309° |
| 2026-05-04 13:38 | 18.67022 | 118.19744 | 37975 ft | 460 kts | 309° |
| 2026-05-04 13:39 | 18.71357 | 118.14836 | 37974 ft | 460 kts | 309° |
| 2026-05-04 13:39 | 18.75728 | 118.09884 | 37977 ft | 460 kts | 309° |
| 2026-05-04 13:40 | 18.80101 | 118.04924 | 37980 ft | 460 kts | 309° |
| 2026-05-04 13:40 | 18.84464 | 117.99974 | 37982 ft | 460 kts | 309° |
| 2026-05-04 13:41 | 18.88790 | 117.95059 | 37979 ft | 459 kts | 309° |
| 2026-05-04 13:41 | 18.93151 | 117.90102 | 37985 ft | 459 kts | 309° |
| 2026-05-04 13:42 | 18.99666 | 117.82686 | 37984 ft | 458 kts | 309° |
| 2026-05-04 13:42 | 19.03981 | 117.77772 | 37986 ft | 458 kts | 309° |
| 2026-05-04 13:43 | 19.08311 | 117.72833 | 37990 ft | 458 kts | 309° |
| 2026-05-04 13:43 | 19.12642 | 117.67887 | 37993 ft | 457 kts | 309° |
| 2026-05-04 13:44 | 19.16932 | 117.62982 | 37986 ft | 457 kts | 309° |
| 2026-05-04 13:44 | 19.21249 | 117.58043 | 37994 ft | 457 kts | 309° |
| 2026-05-04 13:45 | 19.25563 | 117.53104 | 37995 ft | 456 kts | 309° |
| 2026-05-04 13:45 | 19.29873 | 117.48165 | 37995 ft | 456 kts | 309° |
| 2026-05-04 13:46 | 19.34175 | 117.43229 | 37993 ft | 456 kts | 309° |
| 2026-05-04 13:46 | 19.38479 | 117.38289 | 37997 ft | 456 kts | 309° |
| 2026-05-04 13:47 | 19.42779 | 117.33348 | 37998 ft | 456 kts | 309° |
| 2026-05-04 13:47 | 19.47048 | 117.28440 | 38005 ft | 456 kts | 309° |
| 2026-05-04 13:48 | 19.51346 | 117.23494 | 38004 ft | 455 kts | 309° |
| 2026-05-04 13:48 | 19.55643 | 117.18544 | 38003 ft | 455 kts | 309° |
| 2026-05-04 13:49 | 19.59939 | 117.13592 | 38009 ft | 456 kts | 309° |
| 2026-05-04 13:49 | 19.64225 | 117.08647 | 38006 ft | 455 kts | 309° |
| 2026-05-04 13:50 | 19.68485 | 117.03728 | 38007 ft | 455 kts | 309° |
| 2026-05-04 13:50 | 19.72774 | 116.98772 | 38008 ft | 455 kts | 309° |
| 2026-05-04 13:51 | 19.77049 | 116.93826 | 38016 ft | 454 kts | 309° |
| 2026-05-04 13:51 | 19.81318 | 116.88883 | 38011 ft | 453 kts | 309° |
| 2026-05-04 13:52 | 19.87679 | 116.81510 | 38020 ft | 453 kts | 309° |
| 2026-05-04 13:53 | 19.91946 | 116.76559 | 38016 ft | 453 kts | 309° |
| 2026-05-04 13:53 | 19.96193 | 116.71627 | 38018 ft | 452 kts | 309° |
| 2026-05-04 13:54 | 20.01793 | 116.63699 | 38024 ft | 446 kts | 296° |
| 2026-05-04 13:55 | 20.06094 | 116.54936 | 38021 ft | 445 kts | 295° |
| 2026-05-04 13:55 | 20.10369 | 116.46188 | 38019 ft | 444 kts | 295° |
| 2026-05-04 13:56 | 20.13231 | 116.40371 | 38025 ft | 443 kts | 295° |
| 2026-05-04 13:57 | 20.17517 | 116.31656 | 38015 ft | 443 kts | 295° |
| 2026-05-04 13:58 | 20.23223 | 116.20026 | 38018 ft | 443 kts | 295° |
| 2026-05-04 13:58 | 20.27479 | 116.11336 | 38023 ft | 443 kts | 295° |
| 2026-05-04 13:59 | 20.30324 | 116.05519 | 38027 ft | 443 kts | 294° |
| 2026-05-04 14:00 | 20.34600 | 115.96786 | 38028 ft | 443 kts | 295° |
| 2026-05-04 14:00 | 20.38881 | 115.88055 | 38029 ft | 443 kts | 295° |
| 2026-05-04 14:01 | 20.41736 | 115.82220 | 38038 ft | 444 kts | 295° |
| 2026-05-04 14:02 | 20.45995 | 115.73503 | 38028 ft | 444 kts | 295° |
| 2026-05-04 14:02 | 20.48848 | 115.67654 | 38045 ft | 444 kts | 295° |
| 2026-05-04 14:03 | 20.51702 | 115.61800 | 38036 ft | 444 kts | 295° |
| 2026-05-04 14:03 | 20.54734 | 115.56043 | 38044 ft | 447 kts | 301° |
| 2026-05-04 14:03 | 20.56550 | 115.53382 | 37747 ft | 451 kts | 304° |
| 2026-05-04 14:04 | 20.60817 | 115.48410 | 36318 ft | 455 kts | 311° |
| 2026-05-04 14:04 | 20.63091 | 115.46059 | 35732 ft | 452 kts | 311° |
| 2026-05-04 14:04 | 20.65350 | 115.43743 | 35172 ft | 449 kts | 311° |
| 2026-05-04 14:05 | 20.69815 | 115.39131 | 34088 ft | 443 kts | 311° |
| 2026-05-04 14:05 | 20.72014 | 115.36838 | 33496 ft | 441 kts | 311° |
| 2026-05-04 14:05 | 20.74171 | 115.34580 | 32963 ft | 437 kts | 310° |
| 2026-05-04 14:06 | 20.76338 | 115.32309 | 32430 ft | 434 kts | 310° |
| 2026-05-04 14:06 | 20.78482 | 115.30059 | 31925 ft | 431 kts | 310° |
| 2026-05-04 14:06 | 20.80615 | 115.27820 | 31396 ft | 428 kts | 310° |
| 2026-05-04 14:06 | 20.82736 | 115.25593 | 30892 ft | 426 kts | 310° |
| 2026-05-04 14:07 | 20.84850 | 115.23373 | 30375 ft | 424 kts | 310° |
| 2026-05-04 14:07 | 20.86957 | 115.21160 | 29810 ft | 423 kts | 310° |
| 2026-05-04 14:07 | 20.89058 | 115.18954 | 29251 ft | 421 kts | 310° |
| 2026-05-04 14:07 | 20.91111 | 115.16793 | 28714 ft | 418 kts | 310° |
| 2026-05-04 14:08 | 20.93180 | 115.14611 | 28198 ft | 415 kts | 310° |
| 2026-05-04 14:08 | 20.95230 | 115.12446 | 27680 ft | 413 kts | 310° |
| 2026-05-04 14:08 | 20.97265 | 115.10296 | 27172 ft | 410 kts | 310° |
| 2026-05-04 14:08 | 20.99291 | 115.08155 | 26671 ft | 408 kts | 310° |
| 2026-05-04 14:09 | 21.03308 | 115.03912 | 25710 ft | 403 kts | 311° |
| 2026-05-04 14:09 | 21.05299 | 115.01813 | 25257 ft | 400 kts | 311° |
| 2026-05-04 14:10 | 21.09237 | 114.97657 | 24353 ft | 395 kts | 311° |
| 2026-05-04 14:10 | 21.11190 | 114.95595 | 23928 ft | 393 kts | 311° |
| 2026-05-04 14:10 | 21.13135 | 114.93539 | 23450 ft | 391 kts | 311° |
| 2026-05-04 14:10 | 21.15042 | 114.91522 | 22962 ft | 388 kts | 311° |
| 2026-05-04 14:11 | 21.16955 | 114.89500 | 22511 ft | 384 kts | 311° |
| 2026-05-04 14:11 | 21.20727 | 114.85507 | 21646 ft | 377 kts | 311° |
| 2026-05-04 14:11 | 21.22584 | 114.83541 | 21226 ft | 374 kts | 311° |
| 2026-05-04 14:12 | 21.24425 | 114.81591 | 20818 ft | 371 kts | 311° |
| 2026-05-04 14:12 | 21.26253 | 114.79652 | 20395 ft | 368 kts | 311° |
| 2026-05-04 14:12 | 21.29859 | 114.75827 | 19598 ft | 362 kts | 311° |
| 2026-05-04 14:13 | 21.31646 | 114.73931 | 19181 ft | 360 kts | 311° |
| 2026-05-04 14:13 | 21.33400 | 114.72069 | 18772 ft | 358 kts | 311° |
| 2026-05-04 14:13 | 21.35164 | 114.70195 | 18374 ft | 356 kts | 311° |
| 2026-05-04 14:13 | 21.36918 | 114.68331 | 17928 ft | 354 kts | 311° |
| 2026-05-04 14:14 | 21.38662 | 114.66477 | 17513 ft | 351 kts | 311° |
| 2026-05-04 14:14 | 21.42119 | 114.62801 | 16708 ft | 347 kts | 311° |
| 2026-05-04 14:14 | 21.43827 | 114.60984 | 16329 ft | 344 kts | 311° |
| 2026-05-04 14:15 | 21.47195 | 114.57400 | 15559 ft | 341 kts | 312° |
| 2026-05-04 14:15 | 21.51267 | 114.54873 | 14809 ft | 348 kts | 339° |
| 2026-05-04 14:16 | 21.55887 | 114.53362 | 14010 ft | 345 kts | 339° |
| 2026-05-04 14:16 | 21.58169 | 114.52581 | 13593 ft | 343 kts | 339° |
| 2026-05-04 14:17 | 21.62325 | 114.50451 | 12888 ft | 323 kts | 313° |
| 2026-05-04 14:17 | 21.63877 | 114.48693 | 12677 ft | 324 kts | 309° |
| 2026-05-04 14:17 | 21.66934 | 114.45105 | 12198 ft | 325 kts | 309° |
| 2026-05-04 14:18 | 21.68460 | 114.43317 | 11960 ft | 325 kts | 309° |
| 2026-05-04 14:18 | 21.71524 | 114.39751 | 11495 ft | 323 kts | 310° |
| 2026-05-04 14:19 | 21.74563 | 114.36227 | 11024 ft | 320 kts | 310° |
| 2026-05-04 14:19 | 21.76074 | 114.34478 | 10828 ft | 317 kts | 310° |
| 2026-05-04 14:19 | 21.77542 | 114.32777 | 10581 ft | 311 kts | 310° |
| 2026-05-04 14:19 | 21.79003 | 114.31087 | 10349 ft | 305 kts | 310° |
| 2026-05-04 14:20 | 21.80433 | 114.29430 | 10106 ft | 300 kts | 310° |
| 2026-05-04 14:20 | 21.81838 | 114.27802 | 9957 ft | 291 kts | 310° |
| 2026-05-04 14:20 | 21.83204 | 114.26218 | 9668 ft | 288 kts | 310° |
| 2026-05-04 14:21 | 21.85420 | 114.23648 | 9273 ft | 272 kts | 309° |
| 2026-05-04 14:21 | 21.87125 | 114.21671 | 9011 ft | 269 kts | 309° |
| 2026-05-04 14:21 | 21.87971 | 114.20687 | 8903 ft | 271 kts | 309° |
| 2026-05-04 14:21 | 21.89241 | 114.19187 | 8700 ft | 269 kts | 306° |
| 2026-05-04 14:22 | 21.90269 | 114.17521 | 8518 ft | 266 kts | 297° |
| 2026-05-04 14:22 | 21.91160 | 114.15780 | 8313 ft | 265 kts | 296° |
| 2026-05-04 14:22 | 21.92028 | 114.14032 | 8130 ft | 264 kts | 296° |
| 2026-05-04 14:22 | 21.92886 | 114.12308 | 7943 ft | 264 kts | 296° |
| 2026-05-04 14:23 | 21.94640 | 114.08835 | 7558 ft | 263 kts | 296° |
| 2026-05-04 14:23 | 21.95520 | 114.07108 | 7369 ft | 263 kts | 296° |
| 2026-05-04 14:23 | 21.96402 | 114.05385 | 7185 ft | 262 kts | 296° |
| 2026-05-04 14:24 | 21.97284 | 114.03667 | 6986 ft | 261 kts | 297° |
| 2026-05-04 14:24 | 21.98164 | 114.01954 | 6803 ft | 262 kts | 296° |
| 2026-05-04 14:24 | 21.99049 | 114.00237 | 6619 ft | 262 kts | 297° |
| 2026-05-04 14:24 | 21.99933 | 113.98522 | 6425 ft | 262 kts | 297° |
| 2026-05-04 14:25 | 22.00816 | 113.96809 | 6218 ft | 261 kts | 296° |
| 2026-05-04 14:25 | 22.02575 | 113.93390 | 5820 ft | 261 kts | 297° |
| 2026-05-04 14:25 | 22.03455 | 113.91682 | 5638 ft | 261 kts | 297° |
| 2026-05-04 14:26 | 22.04325 | 113.89992 | 5455 ft | 261 kts | 297° |
| 2026-05-04 14:26 | 22.05206 | 113.88281 | 5267 ft | 260 kts | 297° |
| 2026-05-04 14:26 | 22.06084 | 113.86575 | 5081 ft | 260 kts | 297° |
| 2026-05-04 14:26 | 22.06962 | 113.84870 | 4893 ft | 260 kts | 297° |
| 2026-05-04 14:27 | 22.07840 | 113.83161 | 4699 ft | 260 kts | 297° |
| 2026-05-04 14:27 | 22.08720 | 113.81449 | 4497 ft | 261 kts | 298° |
| 2026-05-04 14:27 | 22.09602 | 113.79734 | 4311 ft | 262 kts | 298° |
| 2026-05-04 14:27 | 22.10533 | 113.78048 | 4104 ft | 261 kts | 309° |
| 2026-05-04 14:28 | 22.11955 | 113.76911 | 3978 ft | 254 kts | 335° |
| 2026-05-04 14:28 | 22.13554 | 113.76139 | 3752 ft | 250 kts | 336° |
| 2026-05-04 14:28 | 22.15120 | 113.75364 | 3561 ft | 245 kts | 336° |
| 2026-05-04 14:28 | 22.16655 | 113.74599 | 3386 ft | 240 kts | 338° |
| 2026-05-04 14:29 | 22.19639 | 113.73115 | 3031 ft | 232 kts | 337° |
| 2026-05-04 14:29 | 22.22500 | 113.71783 | 2728 ft | 208 kts | 353° |
| 2026-05-04 14:30 | 22.23841 | 113.71947 | 2597 ft | 191 kts | 26° |
| 2026-05-04 14:30 | 22.24962 | 113.72676 | 2444 ft | 186 kts | 41° |
| 2026-05-04 14:30 | 22.26900 | 113.74460 | 2174 ft | 181 kts | 44° |
| 2026-05-04 14:31 | 22.27770 | 113.75422 | 2044 ft | 178 kts | 62° |
| 2026-05-04 14:31 | 22.28779 | 113.77795 | 1771 ft | 164 kts | 70° |
| 2026-05-04 14:32 | 22.29474 | 113.79877 | 1586 ft | 140 kts | 72° |
| 2026-05-04 14:32 | 22.29793 | 113.80870 | 1411 ft | 140 kts | 72° |
| 2026-05-04 14:32 | 22.30112 | 113.81859 | 1257 ft | 139 kts | 72° |
| 2026-05-04 14:32 | 22.30415 | 113.82821 | 1112 ft | 133 kts | 73° |
| 2026-05-04 14:33 | 22.30716 | 113.83768 | 919 ft | 135 kts | 72° |
| 2026-05-04 14:33 | 22.31026 | 113.84738 | 766 ft | 141 kts | 71° |
| 2026-05-04 14:33 | 22.31369 | 113.85740 | 622 ft | 140 kts | 72° |
| 2026-05-04 14:33 | 22.31680 | 113.86707 | 373 ft | 134 kts | 73° |
| 2026-05-04 14:34 | 22.31981 | 113.87670 | 174 ft | 135 kts | 72° |
| 2026-05-04 14:34 | 22.32294 | 113.88627 | 50 ft | 135 kts | 72° |
| 2026-05-04 14:34 | 22.32574 | 113.89503 | 42 ft | 106 kts | 71° |
| 2026-05-04 14:34 | 22.32755 | 113.90062 | 41 ft | 54 kts | 70° |
| 2026-05-04 14:35 | 22.32827 | 113.90342 | 41 ft | 41 kts | 83° |
| 2026-05-04 14:35 | 22.32786 | 113.90688 | 42 ft | 48 kts | 90° |
| 2026-05-04 14:35 | 22.32902 | 113.91081 | 43 ft | 62 kts | 70° |
| 2026-05-04 14:35 | 22.33059 | 113.91562 | 43 ft | 67 kts | 70° |
| 2026-05-04 14:36 | 22.33171 | 113.91912 | 42 ft | 50 kts | 70° |
| 2026-05-04 14:36 | 22.33199 | 113.92105 | 42 ft | 10 kts | 131° |
| 2026-05-04 14:36 | 22.33041 | 113.92169 | 42 ft | 41 kts | 161° |
| 2026-05-04 14:36 | 22.32706 | 113.92295 | 42 ft | 54 kts | 161° |
| 2026-05-04 14:37 | 22.32385 | 113.92416 | 42 ft | 34 kts | 160° |
| 2026-05-04 14:37 | 22.32250 | 113.92505 | 41 ft | 18 kts | 98° |
| 2026-05-04 14:37 | 22.32266 | 113.92637 | 42 ft | 18 kts | 111° |
| 2026-05-04 14:37 | 22.32186 | 113.92684 | 42 ft | 13 kts | 160° |
| 2026-05-04 14:38 | 22.32015 | 113.92748 | 40 ft | 40 kts | 160° |
| 2026-05-04 14:38 | 22.31756 | 113.92860 | 42 ft | 39 kts | 160° |
| 2026-05-04 14:38 | 22.31568 | 113.92939 | 42 ft | 14 kts | 143° |
| 2026-05-04 14:38 | 22.31497 | 113.92984 | 42 ft | 9 kts | 159° |
| 2026-05-04 14:39 | 22.31463 | 113.92997 | 42 ft | 2 kts | 160° |
| 2026-05-04 14:39 | 22.31458 | 113.92999 | 42 ft | 0 kts | 160° |